sensor_id;sensor_type;location;lat;lon;timestamp;pressure;altitude;pressure_sealevel;temperature;humidity
7441;BME280;29616;51.950;8.572;2023-05-24T00:02:31;100713.34;;;6.38;100.00
7441;BME280;29616;51.950;8.572;2023-05-24T00:05:00;100706.72;;;6.30;100.00
7441;BME280;29616;51.950;8.572;2023-05-24T00:07:31;100714.53;;;6.34;100.00
7441;BME280;29616;51.950;8.572;2023-05-24T00:09:59;100715.63;;;6.32;100.00
7441;BME280;29616;51.950;8.572;2023-05-24T00:12:30;100704.66;;;6.21;100.00
7441;BME280;29616;51.950;8.572;2023-05-24T00:15:00;100705.88;;;6.17;100.00
7441;BME280;29616;51.950;8.572;2023-05-24T00:17:30;100711.31;;;6.04;100.00
7441;BME280;29616;51.950;8.572;2023-05-24T00:20:00;100697.75;;;6.04;100.00
7441;BME280;29616;51.950;8.572;2023-05-24T00:22:35;100699.38;;;6.06;100.00
7441;BME280;29616;51.950;8.572;2023-05-24T00:25:06;100702.53;;;6.00;100.00
7441;BME280;29616;51.950;8.572;2023-05-24T00:27:34;100715.75;;;5.92;100.00
7441;BME280;29616;51.950;8.572;2023-05-24T00:30:06;100711.31;;;5.91;100.00
7441;BME280;29616;51.950;8.572;2023-05-24T00:32:34;100695.66;;;5.82;100.00
7441;BME280;29616;51.950;8.572;2023-05-24T00:35:05;100706.94;;;5.76;100.00
7441;BME280;29616;51.950;8.572;2023-05-24T00:37:36;100706.72;;;5.67;100.00
7441;BME280;29616;51.950;8.572;2023-05-24T00:40:08;100700.72;;;5.62;100.00
7441;BME280;29616;51.950;8.572;2023-05-24T00:42:38;100702.34;;;5.51;100.00
7441;BME280;29616;51.950;8.572;2023-05-24T00:45:08;100699.97;;;5.47;100.00
7441;BME280;29616;51.950;8.572;2023-05-24T00:47:39;100680.09;;;5.21;100.00
7441;BME280;29616;51.950;8.572;2023-05-24T00:50:10;100681.72;;;5.24;100.00
7441;BME280;29616;51.950;8.572;2023-05-24T00:52:44;100692.13;;;5.30;100.00
7441;BME280;29616;51.950;8.572;2023-05-24T00:55:17;100682.69;;;5.23;100.00
7441;BME280;29616;51.950;8.572;2023-05-24T00:57:45;100697.97;;;5.24;100.00
7441;BME280;29616;51.950;8.572;2023-05-24T01:00:17;100688.09;;;5.23;100.00
7441;BME280;29616;51.950;8.572;2023-05-24T01:02:46;100692.13;;;5.30;100.00
7441;BME280;29616;51.950;8.572;2023-05-24T01:05:18;100693.09;;;5.29;100.00
7441;BME280;29616;51.950;8.572;2023-05-24T01:08:03;100687.59;;;5.43;100.00
7441;BME280;29616;51.950;8.572;2023-05-24T01:10:42;100681.94;;;5.46;100.00
7441;BME280;29616;51.950;8.572;2023-05-24T01:13:26;100683.91;;;5.44;100.00
7441;BME280;29616;51.950;8.572;2023-05-24T01:16:03;100675.09;;;5.40;100.00
7441;BME280;29616;51.950;8.572;2023-05-24T01:18:37;100669.06;;;5.37;100.00
7441;BME280;29616;51.950;8.572;2023-05-24T01:21:18;100663.28;;;5.29;100.00
7441;BME280;29616;51.950;8.572;2023-05-24T01:24:06;100673.03;;;5.19;100.00
7441;BME280;29616;51.950;8.572;2023-05-24T01:27:02;100649.81;;;5.02;100.00
7441;BME280;29616;51.950;8.572;2023-05-24T01:29:34;100672.09;;;5.06;100.00
7441;BME280;29616;51.950;8.572;2023-05-24T01:32:06;100680.81;;;5.11;100.00
7441;BME280;29616;51.950;8.572;2023-05-24T01:34:35;100668.66;;;5.04;100.00
7441;BME280;29616;51.950;8.572;2023-05-24T01:37:04;100668.66;;;5.04;100.00
7441;BME280;29616;51.950;8.572;2023-05-24T01:39:32;100678.53;;;5.05;100.00
7441;BME280;29616;51.950;8.572;2023-05-24T01:42:13;100679.47;;;5.04;100.00
7441;BME280;29616;51.950;8.572;2023-05-24T01:44:56;100678.53;;;5.05;100.00
7441;BME280;29616;51.950;8.572;2023-05-24T01:47:35;100661.50;;;5.03;100.00
7441;BME280;29616;51.950;8.572;2023-05-24T01:50:16;100670.03;;;4.97;100.00
7441;BME280;29616;51.950;8.572;2023-05-24T01:52:49;100655.19;;;4.89;100.00
7441;BME280;29616;51.950;8.572;2023-05-24T01:55:20;100669.28;;;4.95;100.00
7441;BME280;29616;51.950;8.572;2023-05-24T01:57:53;100657.31;;;4.84;100.00
7441;BME280;29616;51.950;8.572;2023-05-24T02:00:28;100670.25;;;4.94;100.00
7441;BME280;29616;51.950;8.572;2023-05-24T02:02:58;100653.75;;;4.84;100.00
7441;BME280;29616;51.950;8.572;2023-05-24T02:05:28;100671.84;;;4.83;100.00
7441;BME280;29616;51.950;8.572;2023-05-24T02:07:56;100661.09;;;4.82;100.00
7441;BME280;29616;51.950;8.572;2023-05-24T02:10:25;100666.63;;;4.80;100.00
7441;BME280;29616;51.950;8.572;2023-05-24T02:12:55;100635.25;;;4.64;100.00
7441;BME280;29616;51.950;8.572;2023-05-24T02:15:26;100653.22;;;4.79;100.00
7441;BME280;29616;51.950;8.572;2023-05-24T02:17:56;100658.47;;;4.68;100.00
7441;BME280;29616;51.950;8.572;2023-05-24T02:20:29;100659.44;;;4.67;100.00
7441;BME280;29616;51.950;8.572;2023-05-24T02:22:59;100666.47;;;4.69;100.00
7441;BME280;29616;51.950;8.572;2023-05-24T02:25:29;100662.25;;;4.65;100.00
7441;BME280;29616;51.950;8.572;2023-05-24T02:28:01;100662.81;;;4.70;100.00
7441;BME280;29616;51.950;8.572;2023-05-24T02:30:29;100656.56;;;4.56;100.00
7441;BME280;29616;51.950;8.572;2023-05-24T02:32:58;100661.09;;;4.55;100.00
7441;BME280;29616;51.950;8.572;2023-05-24T02:35:29;100654.28;;;4.50;100.00
7441;BME280;29616;51.950;8.572;2023-05-24T02:38:01;100656.88;;;4.51;100.00
7441;BME280;29616;51.950;8.572;2023-05-24T02:40:32;100661.53;;;4.49;100.00
7441;BME280;29616;51.950;8.572;2023-05-24T02:43:05;100660.66;;;4.49;100.00
7441;BME280;29616;51.950;8.572;2023-05-24T02:45:33;100667.13;;;4.46;100.00
7441;BME280;29616;51.950;8.572;2023-05-24T02:48:04;100662.31;;;4.37;100.00
7441;BME280;29616;51.950;8.572;2023-05-24T02:50:33;100646.13;;;4.23;100.00
7441;BME280;29616;51.950;8.572;2023-05-24T02:53:03;100657.72;;;4.25;100.00
7441;BME280;29616;51.950;8.572;2023-05-24T02:55:34;100665.63;;;4.28;100.00
7441;BME280;29616;51.950;8.572;2023-05-24T02:58:06;100665.06;;;4.23;100.00
7441;BME280;29616;51.950;8.572;2023-05-24T03:00:38;100662.13;;;4.26;100.00
7441;BME280;29616;51.950;8.572;2023-05-24T03:03:07;100652.50;;;4.22;100.00
7441;BME280;29616;51.950;8.572;2023-05-24T03:05:38;100657.34;;;4.17;100.00
7441;BME280;29616;51.950;8.572;2023-05-24T03:08:08;100661.88;;;4.16;100.00
7441;BME280;29616;51.950;8.572;2023-05-24T03:10:38;100657.34;;;4.17;100.00
7441;BME280;29616;51.950;8.572;2023-05-24T03:13:08;100656.56;;;4.15;100.00
7441;BME280;29616;51.950;8.572;2023-05-24T03:15:39;100665.16;;;4.21;100.00
7441;BME280;29616;51.950;8.572;2023-05-24T03:18:10;100652.69;;;4.19;100.00
7441;BME280;29616;51.950;8.572;2023-05-24T03:20:40;100660.41;;;4.25;100.00
7441;BME280;29616;51.950;8.572;2023-05-24T03:23:10;100669.69;;;4.21;100.00
7441;BME280;29616;51.950;8.572;2023-05-24T03:25:40;100667.34;;;4.29;100.00
7441;BME280;29616;51.950;8.572;2023-05-24T03:28:11;100679.16;;;4.28;100.00
7441;BME280;29616;51.950;8.572;2023-05-24T03:30:42;100671.06;;;4.28;100.00
7441;BME280;29616;51.950;8.572;2023-05-24T03:33:12;100669.47;;;4.38;100.00
7441;BME280;29616;51.950;8.572;2023-05-24T03:35:43;100677.09;;;4.46;100.00
7441;BME280;29616;51.950;8.572;2023-05-24T03:38:11;100672.00;;;4.68;100.00
7441;BME280;29616;51.950;8.572;2023-05-24T03:40:44;100680.94;;;4.82;100.00
7441;BME280;29616;51.950;8.572;2023-05-24T03:43:18;100683.81;;;5.06;100.00
7441;BME280;29616;51.950;8.572;2023-05-24T03:45:55;100684.97;;;5.16;100.00
7441;BME280;29616;51.950;8.572;2023-05-24T03:48:26;100692.13;;;5.30;100.00
7441;BME280;29616;51.950;8.572;2023-05-24T03:50:55;100667.09;;;5.39;100.00
7441;BME280;29616;51.950;8.572;2023-05-24T03:53:25;100669.38;;;5.45;100.00
7441;BME280;29616;51.950;8.572;2023-05-24T03:55:55;100670.28;;;5.58;100.00
7441;BME280;29616;51.950;8.572;2023-05-24T03:58:27;100666.69;;;5.70;100.00
7441;BME280;29616;51.950;8.572;2023-05-24T04:00:56;100672.63;;;5.75;100.00
7441;BME280;29616;51.950;8.572;2023-05-24T04:03:24;100664.41;;;5.77;100.00
7441;BME280;29616;51.950;8.572;2023-05-24T04:05:55;100664.66;;;5.86;100.00
7441;BME280;29616;51.950;8.572;2023-05-24T04:08:24;100668.44;;;5.96;100.00
7441;BME280;29616;51.950;8.572;2023-05-24T04:10:54;100663.09;;;6.07;100.00
7441;BME280;29616;51.950;8.572;2023-05-24T04:13:23;100647.38;;;6.00;100.00
7441;BME280;29616;51.950;8.572;2023-05-24T04:15:53;100658.41;;;6.22;100.00
7441;BME280;29616;51.950;8.572;2023-05-24T04:18:23;100656.31;;;6.26;100.00
7441;BME280;29616;51.950;8.572;2023-05-24T04:20:54;100657.84;;;6.30;100.00
7441;BME280;29616;51.950;8.572;2023-05-24T04:23:23;100663.47;;;6.39;100.00
7441;BME280;29616;51.950;8.572;2023-05-24T04:25:53;100658.97;;;6.51;100.00
7441;BME280;29616;51.950;8.572;2023-05-24T04:28:23;100660.16;;;6.59;100.00
7441;BME280;29616;51.950;8.572;2023-05-24T04:30:54;100661.59;;;6.76;100.00
7441;BME280;29616;51.950;8.572;2023-05-24T04:33:24;100661.13;;;6.82;100.00
7441;BME280;29616;51.950;8.572;2023-05-24T04:35:55;100671.84;;;6.96;100.00
7441;BME280;29616;51.950;8.572;2023-05-24T04:38:25;100673.59;;;7.08;100.00
7441;BME280;29616;51.950;8.572;2023-05-24T04:40:57;100676.50;;;7.18;100.00
7441;BME280;29616;51.950;8.572;2023-05-24T04:43:25;100670.72;;;7.22;100.00
7441;BME280;29616;51.950;8.572;2023-05-24T04:45:56;100658.56;;;7.50;100.00
7441;BME280;29616;51.950;8.572;2023-05-24T04:48:27;100663.06;;;7.73;100.00
7441;BME280;29616;51.950;8.572;2023-05-24T04:50:57;100644.38;;;7.80;100.00
7441;BME280;29616;51.950;8.572;2023-05-24T04:53:26;100661.13;;;8.09;100.00
7441;BME280;29616;51.950;8.572;2023-05-24T04:55:55;100671.88;;;8.21;100.00
7441;BME280;29616;51.950;8.572;2023-05-24T04:58:24;100682.38;;;8.26;100.00
7441;BME280;29616;51.950;8.572;2023-05-24T05:00:56;100687.13;;;8.35;100.00
7441;BME280;29616;51.950;8.572;2023-05-24T05:03:27;100677.59;;;8.40;100.00
7441;BME280;29616;51.950;8.572;2023-05-24T05:05:55;100687.53;;;8.84;100.00
7441;BME280;29616;51.950;8.572;2023-05-24T05:08:25;100675.72;;;8.95;100.00
7441;BME280;29616;51.950;8.572;2023-05-24T05:10:54;100679.78;;;9.11;100.00
7441;BME280;29616;51.950;8.572;2023-05-24T05:13:23;100670.66;;;9.01;100.00
7441;BME280;29616;51.950;8.572;2023-05-24T05:15:52;100680.13;;;9.18;100.00
7441;BME280;29616;51.950;8.572;2023-05-24T05:18:22;100676.84;;;9.24;100.00
7441;BME280;29616;51.950;8.572;2023-05-24T05:20:53;100676.34;;;9.30;100.00
7441;BME280;29616;51.950;8.572;2023-05-24T05:23:23;100672.56;;;9.42;100.00
7441;BME280;29616;51.950;8.572;2023-05-24T05:25:53;100672.50;;;9.74;100.00
7441;BME280;29616;51.950;8.572;2023-05-24T05:28:23;100671.84;;;10.12;100.00
7441;BME280;29616;51.950;8.572;2023-05-24T05:30:53;100676.63;;;10.40;100.00
7441;BME280;29616;51.950;8.572;2023-05-24T05:33:24;100685.44;;;10.53;100.00
7441;BME280;29616;51.950;8.572;2023-05-24T05:35:54;100687.09;;;10.75;100.00
7441;BME280;29616;51.950;8.572;2023-05-24T05:38:23;100687.19;;;10.24;100.00
7441;BME280;29616;51.950;8.572;2023-05-24T05:40:53;100680.34;;;10.39;100.00
7441;BME280;29616;51.950;8.572;2023-05-24T05:43:21;100676.19;;;10.35;100.00
7441;BME280;29616;51.950;8.572;2023-05-24T05:45:51;100684.06;;;10.38;100.00
7441;BME280;29616;51.950;8.572;2023-05-24T05:48:24;100685.63;;;10.31;100.00
7441;BME280;29616;51.950;8.572;2023-05-24T05:50:52;100684.84;;;10.19;100.00
7441;BME280;29616;51.950;8.572;2023-05-24T05:53:23;100692.34;;;9.97;100.00
7441;BME280;29616;51.950;8.572;2023-05-24T05:55:54;100685.22;;;10.05;100.00
7441;BME280;29616;51.950;8.572;2023-05-24T05:58:24;100703.78;;;10.81;100.00
7441;BME280;29616;51.950;8.572;2023-05-24T06:00:52;100700.06;;;10.82;100.00
7441;BME280;29616;51.950;8.572;2023-05-24T06:03:21;100692.97;;;10.70;100.00
7441;BME280;29616;51.950;8.572;2023-05-24T06:05:53;100696.22;;;10.45;100.00
7441;BME280;29616;51.950;8.572;2023-05-24T06:08:23;100693.81;;;10.61;100.00
7441;BME280;29616;51.950;8.572;2023-05-24T06:10:53;100704.41;;;10.94;100.00
7441;BME280;29616;51.950;8.572;2023-05-24T06:13:22;100700.72;;;11.15;100.00
7441;BME280;29616;51.950;8.572;2023-05-24T06:15:53;100690.31;;;11.47;100.00
7441;BME280;29616;51.950;8.572;2023-05-24T06:18:23;100698.84;;;11.92;100.00
7441;BME280;29616;51.950;8.572;2023-05-24T06:20:56;100703.00;;;12.69;100.00
7441;BME280;29616;51.950;8.572;2023-05-24T06:23:27;100693.31;;;12.75;100.00
7441;BME280;29616;51.950;8.572;2023-05-24T06:25:55;100697.31;;;13.70;100.00
7441;BME280;29616;51.950;8.572;2023-05-24T06:28:25;100697.16;;;13.97;100.00
7441;BME280;29616;51.950;8.572;2023-05-24T06:30:53;100702.97;;;13.06;100.00
7441;BME280;29616;51.950;8.572;2023-05-24T06:33:23;100693.22;;;12.40;100.00
7441;BME280;29616;51.950;8.572;2023-05-24T06:35:53;100675.31;;;11.99;100.00
7441;BME280;29616;51.950;8.572;2023-05-24T06:38:22;100685.72;;;11.86;100.00
7441;BME280;29616;51.950;8.572;2023-05-24T06:40:50;100700.56;;;11.93;100.00
7441;BME280;29616;51.950;8.572;2023-05-24T06:43:20;100692.56;;;12.19;100.00
7441;BME280;29616;51.950;8.572;2023-05-24T06:45:50;100695.91;;;12.49;100.00
7441;BME280;29616;51.950;8.572;2023-05-24T06:48:20;100699.47;;;12.23;100.00
7441;BME280;29616;51.950;8.572;2023-05-24T06:50:50;100704.25;;;12.11;100.00
7441;BME280;29616;51.950;8.572;2023-05-24T06:53:19;100715.22;;;12.11;100.00
7441;BME280;29616;51.950;8.572;2023-05-24T06:55:49;100703.28;;;12.02;100.00
7441;BME280;29616;51.950;8.572;2023-05-24T06:58:18;100713.91;;;12.15;100.00
7441;BME280;29616;51.950;8.572;2023-05-24T07:00:48;100711.59;;;12.20;100.00
7441;BME280;29616;51.950;8.572;2023-05-24T07:03:16;100718.34;;;12.72;100.00
7441;BME280;29616;51.950;8.572;2023-05-24T07:05:47;100718.53;;;12.61;100.00
7441;BME280;29616;51.950;8.572;2023-05-24T07:08:17;100663.78;;;12.69;100.00
7441;BME280;29616;51.950;8.572;2023-05-24T07:10:46;100721.03;;;12.99;100.00
7441;BME280;29616;51.950;8.572;2023-05-24T07:13:17;100724.06;;;13.51;100.00
7441;BME280;29616;51.950;8.572;2023-05-24T07:15:46;100719.81;;;15.85;100.00
7441;BME280;29616;51.950;8.572;2023-05-24T07:18:17;100725.72;;;17.46;100.00
7441;BME280;29616;51.950;8.572;2023-05-24T07:20:45;100716.38;;;15.91;100.00
7441;BME280;29616;51.950;8.572;2023-05-24T07:23:15;100724.72;;;14.91;100.00
7441;BME280;29616;51.950;8.572;2023-05-24T07:25:44;100726.00;;;14.71;100.00
7441;BME280;29616;51.950;8.572;2023-05-24T07:28:14;100679.78;;;16.21;100.00
7441;BME280;29616;51.950;8.572;2023-05-24T07:30:47;100723.06;;;16.28;100.00
7441;BME280;29616;51.950;8.572;2023-05-24T07:33:17;100702.91;;;15.80;100.00
7441;BME280;29616;51.950;8.572;2023-05-24T07:35:47;100729.94;;;15.68;100.00
7441;BME280;29616;51.950;8.572;2023-05-24T07:38:17;100716.50;;;15.97;100.00
7441;BME280;29616;51.950;8.572;2023-05-24T07:40:46;100721.88;;;15.83;100.00
7441;BME280;29616;51.950;8.572;2023-05-24T07:43:15;100695.34;;;15.73;100.00
7441;BME280;29616;51.950;8.572;2023-05-24T07:45:43;100707.03;;;15.92;100.00
7441;BME280;29616;51.950;8.572;2023-05-24T07:48:14;100712.53;;;15.67;100.00
7441;BME280;29616;51.950;8.572;2023-05-24T07:50:48;100693.09;;;15.93;100.00
7441;BME280;29616;51.950;8.572;2023-05-24T07:53:20;100708.75;;;16.17;100.00
7441;BME280;29616;51.950;8.572;2023-05-24T07:55:51;100720.47;;;15.78;100.00
7441;BME280;29616;51.950;8.572;2023-05-24T07:58:20;100717.38;;;15.82;100.00
7441;BME280;29616;51.950;8.572;2023-05-24T08:00:51;100724.78;;;15.81;100.00
7441;BME280;29616;51.950;8.572;2023-05-24T08:03:22;100724.59;;;15.58;100.00
7441;BME280;29616;51.950;8.572;2023-05-24T08:05:53;100700.38;;;15.20;100.00
7441;BME280;29616;51.950;8.572;2023-05-24T08:08:22;100721.41;;;15.21;100.00
7441;BME280;29616;51.950;8.572;2023-05-24T08:10:53;100720.88;;;14.76;100.00
7441;BME280;29616;51.950;8.572;2023-05-24T08:13:21;100725.19;;;14.78;100.00
7441;BME280;29616;51.950;8.572;2023-05-24T08:15:53;100712.25;;;15.12;100.00
7441;BME280;29616;51.950;8.572;2023-05-24T08:18:22;100711.47;;;16.49;100.00
7441;BME280;29616;51.950;8.572;2023-05-24T08:20:52;100725.03;;;16.75;100.00
7441;BME280;29616;51.950;8.572;2023-05-24T08:23:23;100726.34;;;17.87;100.00
7441;BME280;29616;51.950;8.572;2023-05-24T08:25:55;100729.13;;;18.39;100.00
7441;BME280;29616;51.950;8.572;2023-05-24T08:28:25;100724.25;;;17.89;100.00
7441;BME280;29616;51.950;8.572;2023-05-24T08:30:55;100715.00;;;18.57;100.00
7441;BME280;29616;51.950;8.572;2023-05-24T08:33:25;100721.28;;;17.68;100.00
7441;BME280;29616;51.950;8.572;2023-05-24T08:35:56;100719.16;;;19.11;100.00
7441;BME280;29616;51.950;8.572;2023-05-24T08:38:25;100713.44;;;18.98;100.00
7441;BME280;29616;51.950;8.572;2023-05-24T08:40:56;100709.63;;;18.99;100.00
7441;BME280;29616;51.950;8.572;2023-05-24T08:43:26;100698.16;;;18.44;100.00
7441;BME280;29616;51.950;8.572;2023-05-24T08:46:01;100723.56;;;17.65;100.00
7441;BME280;29616;51.950;8.572;2023-05-24T08:48:32;100713.91;;;16.44;100.00
7441;BME280;29616;51.950;8.572;2023-05-24T08:51:04;100723.75;;;15.58;100.00
7441;BME280;29616;51.950;8.572;2023-05-24T08:53:34;100728.06;;;14.69;100.00
7441;BME280;29616;51.950;8.572;2023-05-24T08:56:05;100721.69;;;14.34;100.00
7441;BME280;29616;51.950;8.572;2023-05-24T08:58:36;100726.94;;;14.02;100.00
7441;BME280;29616;51.950;8.572;2023-05-24T09:01:07;100736.59;;;13.88;100.00
7441;BME280;29616;51.950;8.572;2023-05-24T09:03:39;100737.94;;;13.67;100.00
7441;BME280;29616;51.950;8.572;2023-05-24T09:06:14;100738.50;;;13.70;100.00
7441;BME280;29616;51.950;8.572;2023-05-24T09:08:45;100736.03;;;13.50;100.00
7441;BME280;29616;51.950;8.572;2023-05-24T09:11:14;100743.28;;;13.51;100.00
7441;BME280;29616;51.950;8.572;2023-05-24T09:13:44;100732.13;;;13.34;100.00
7441;BME280;29616;51.950;8.572;2023-05-24T09:16:15;100730.72;;;13.30;100.00
7441;BME280;29616;51.950;8.572;2023-05-24T09:18:46;100736.44;;;13.55;100.00
7441;BME280;29616;51.950;8.572;2023-05-24T09:21:17;100735.25;;;13.40;100.00
7441;BME280;29616;51.950;8.572;2023-05-24T09:23:48;100741.84;;;13.47;100.00
7441;BME280;29616;51.950;8.572;2023-05-24T09:26:20;100741.72;;;13.30;100.00
7441;BME280;29616;51.950;8.572;2023-05-24T09:28:54;100754.69;;;13.28;100.00
7441;BME280;29616;51.950;8.572;2023-05-24T09:31:37;100753.50;;;13.13;100.00
7441;BME280;29616;51.950;8.572;2023-05-24T09:34:14;100759.66;;;13.25;100.00
7441;BME280;29616;51.950;8.572;2023-05-24T09:36:45;100758.44;;;13.10;100.00
7441;BME280;29616;51.950;8.572;2023-05-24T09:39:18;100761.47;;;13.07;100.00
7441;BME280;29616;51.950;8.572;2023-05-24T09:41:52;100737.31;;;12.83;100.00
7441;BME280;29616;51.950;8.572;2023-05-24T09:44:25;100758.34;;;12.92;100.00
7441;BME280;29616;51.950;8.572;2023-05-24T09:47:01;100746.09;;;12.87;100.00
7441;BME280;29616;51.950;8.572;2023-05-24T09:49:36;100764.88;;;13.18;100.00
7441;BME280;29616;51.950;8.572;2023-05-24T09:52:07;100734.78;;;13.26;100.00
7441;BME280;29616;51.950;8.572;2023-05-24T09:54:36;100768.78;;;13.43;100.00
7441;BME280;29616;51.950;8.572;2023-05-24T09:57:10;100762.81;;;13.65;100.00
7441;BME280;29616;51.950;8.572;2023-05-24T09:59:39;100751.97;;;13.99;100.00
7441;BME280;29616;51.950;8.572;2023-05-24T10:02:11;100753.56;;;14.53;100.00
7441;BME280;29616;51.950;8.572;2023-05-24T10:04:42;100696.28;;;14.74;100.00
7441;BME280;29616;51.950;8.572;2023-05-24T10:07:12;100742.56;;;14.79;100.00
7441;BME280;29616;51.950;8.572;2023-05-24T10:09:41;100753.63;;;14.61;100.00
7441;BME280;29616;51.950;8.572;2023-05-24T10:12:13;100750.03;;;14.61;100.00
7441;BME280;29616;51.950;8.572;2023-05-24T10:14:44;100733.22;;;14.38;100.00
7441;BME280;29616;51.950;8.572;2023-05-24T10:17:13;100743.53;;;14.18;100.00
7441;BME280;29616;51.950;8.572;2023-05-24T10:19:44;100758.81;;;14.38;100.00
7441;BME280;29616;51.950;8.572;2023-05-24T10:22:13;100753.00;;;14.24;100.00
7441;BME280;29616;51.950;8.572;2023-05-24T10:24:46;100754.63;;;14.86;100.00
7441;BME280;29616;51.950;8.572;2023-05-24T10:27:16;100757.75;;;15.33;100.00
7441;BME280;29616;51.950;8.572;2023-05-24T10:29:53;100750.78;;;14.71;100.00
7441;BME280;29616;51.950;8.572;2023-05-24T10:32:27;100756.88;;;14.82;100.00
7441;BME280;29616;51.950;8.572;2023-05-24T10:35:02;100761.47;;;15.65;100.00
7441;BME280;29616;51.950;8.572;2023-05-24T10:37:33;100755.75;;;15.51;100.00
7441;BME280;29616;51.950;8.572;2023-05-24T10:40:02;100759.03;;;15.62;100.00
7441;BME280;29616;51.950;8.572;2023-05-24T10:42:34;100769.75;;;15.90;100.00
7441;BME280;29616;51.950;8.572;2023-05-24T10:45:29;100759.66;;;15.40;100.00
7441;BME280;29616;51.950;8.572;2023-05-24T10:48:07;100770.81;;;15.31;100.00
7441;BME280;29616;51.950;8.572;2023-05-24T10:50:40;100773.03;;;15.19;100.00
7441;BME280;29616;51.950;8.572;2023-05-24T10:53:12;100747.19;;;15.20;100.00
7441;BME280;29616;51.950;8.572;2023-05-24T10:55:54;100775.13;;;15.41;100.00
7441;BME280;29616;51.950;8.572;2023-05-24T10:58:42;100751.97;;;15.10;100.00
7441;BME280;29616;51.950;8.572;2023-05-24T11:01:13;100769.97;;;15.30;100.00
7441;BME280;29616;51.950;8.572;2023-05-24T11:03:43;100773.25;;;15.42;100.00
7441;BME280;29616;51.950;8.572;2023-05-24T11:06:14;100765.84;;;15.34;100.00
7441;BME280;29616;51.950;8.572;2023-05-24T11:08:46;100757.72;;;15.25;100.00
7441;BME280;29616;51.950;8.572;2023-05-24T11:11:15;100763.69;;;15.54;100.00
7441;BME280;29616;51.950;8.572;2023-05-24T11:13:55;100759.00;;;15.46;100.00
7441;BME280;29616;51.950;8.572;2023-05-24T11:16:35;100753.34;;;15.06;100.00
7441;BME280;29616;51.950;8.572;2023-05-24T11:19:15;100758.59;;;15.33;100.00
7441;BME280;29616;51.950;8.572;2023-05-24T11:21:47;100752.50;;;15.55;100.00
7441;BME280;29616;51.950;8.572;2023-05-24T11:24:17;100748.31;;;15.43;100.00
7441;BME280;29616;51.950;8.572;2023-05-24T11:26:49;100770.31;;;15.35;100.00
7441;BME280;29616;51.950;8.572;2023-05-24T11:29:19;100761.38;;;15.41;100.00
7441;BME280;29616;51.950;8.572;2023-05-24T11:31:51;100772.69;;;15.22;100.00
7441;BME280;29616;51.950;8.572;2023-05-24T11:34:22;100762.16;;;15.75;100.00
7441;BME280;29616;51.950;8.572;2023-05-24T11:36:56;100766.66;;;16.09;100.00
7441;BME280;29616;51.950;8.572;2023-05-24T11:39:29;100763.56;;;16.36;100.00
7441;BME280;29616;51.950;8.572;2023-05-24T11:42:00;100764.59;;;16.27;100.00
7441;BME280;29616;51.950;8.572;2023-05-24T11:44:34;100761.47;;;15.73;100.00
7441;BME280;29616;51.950;8.572;2023-05-24T11:47:06;100761.31;;;15.67;100.00
7441;BME280;29616;51.950;8.572;2023-05-24T11:49:36;100747.16;;;16.26;100.00
7441;BME280;29616;51.950;8.572;2023-05-24T11:52:05;100759.22;;;17.13;100.00
7441;BME280;29616;51.950;8.572;2023-05-24T11:54:36;100759.81;;;17.70;100.00
7441;BME280;29616;51.950;8.572;2023-05-24T11:57:05;100765.72;;;17.67;100.00
7441;BME280;29616;51.950;8.572;2023-05-24T11:59:36;100754.72;;;18.41;100.00
7441;BME280;29616;51.950;8.572;2023-05-24T12:02:06;100744.13;;;18.67;100.00
7441;BME280;29616;51.950;8.572;2023-05-24T12:04:37;100749.06;;;19.16;100.00
7441;BME280;29616;51.950;8.572;2023-05-24T12:07:11;100751.19;;;18.99;100.00
7441;BME280;29616;51.950;8.572;2023-05-24T12:09:41;100753.22;;;18.16;100.00
7441;BME280;29616;51.950;8.572;2023-05-24T12:12:11;100747.16;;;17.14;100.00
7441;BME280;29616;51.950;8.572;2023-05-24T12:14:40;100750.00;;;16.89;100.00
7441;BME280;29616;51.950;8.572;2023-05-24T12:17:14;100747.28;;;16.81;100.00
7441;BME280;29616;51.950;8.572;2023-05-24T12:19:43;100747.00;;;16.36;100.00
7441;BME280;29616;51.950;8.572;2023-05-24T12:22:13;100744.97;;;15.98;100.00
7441;BME280;29616;51.950;8.572;2023-05-24T12:24:41;100748.72;;;16.05;100.00
7441;BME280;29616;51.950;8.572;2023-05-24T12:27:12;100752.88;;;16.01;100.00
7441;BME280;29616;51.950;8.572;2023-05-24T12:29:40;100754.09;;;15.98;100.00
7441;BME280;29616;51.950;8.572;2023-05-24T12:32:10;100744.44;;;15.70;100.00
7441;BME280;29616;51.950;8.572;2023-05-24T12:34:43;100741.47;;;15.55;100.00
7441;BME280;29616;51.950;8.572;2023-05-24T12:37:16;100738.69;;;15.47;100.00
7441;BME280;29616;51.950;8.572;2023-05-24T12:39:47;100754.41;;;15.63;100.00
7441;BME280;29616;51.950;8.572;2023-05-24T12:42:18;100756.84;;;16.06;100.00
7441;BME280;29616;51.950;8.572;2023-05-24T12:44:50;100755.97;;;16.38;100.00
7441;BME280;29616;51.950;8.572;2023-05-24T12:47:20;100752.34;;;16.29;100.00
7441;BME280;29616;51.950;8.572;2023-05-24T12:49:49;100760.78;;;16.44;100.00
7441;BME280;29616;51.950;8.572;2023-05-24T12:52:20;100757.63;;;16.71;100.00
7441;BME280;29616;51.950;8.572;2023-05-24T12:54:51;100756.88;;;16.93;100.00
7441;BME280;29616;51.950;8.572;2023-05-24T12:57:20;100753.88;;;16.48;100.00
7441;BME280;29616;51.950;8.572;2023-05-24T12:59:50;100758.75;;;16.14;100.00
7441;BME280;29616;51.950;8.572;2023-05-24T13:02:18;100755.97;;;15.90;100.00
7441;BME280;29616;51.950;8.572;2023-05-24T13:04:48;100755.06;;;15.57;100.00
7441;BME280;29616;51.950;8.572;2023-05-24T13:07:19;100753.44;;;15.30;100.00
7441;BME280;29616;51.950;8.572;2023-05-24T13:09:50;100752.97;;;15.01;100.00
7441;BME280;29616;51.950;8.572;2023-05-24T13:12:20;100762.75;;;14.87;100.00
7441;BME280;29616;51.950;8.572;2023-05-24T13:14:49;100766.31;;;14.54;100.00
7441;BME280;29616;51.950;8.572;2023-05-24T13:17:20;100749.94;;;14.44;100.00